Wetterdaten: Woche 06.02.12 - 12.02.12 (KW6)
Datum Zeit Temp. A. Feuchte A. Luftdruck Regen Wind Richtung Taupunkt Windchill Windben
06.02.2012 00:00 -12,6 C 60 % 1034,1 hPa 0,0 l/m 5,3 km/h W-NW -18,8 C -12,6 C 14,5 km/h
06.02.2012 01:00 -12,7 C 60 % 1033,8 hPa 0,0 l/m 6,9 km/h W-NW -18,8 C -13,6 C 18,1 km/h
06.02.2012 02:00 -12,4 C 59 % 1033,7 hPa 0,0 l/m 7,4 km/h W-NW -18,6 C -13,8 C 17,3 km/h
06.02.2012 03:00 -12,7 C 59 % 1033,7 hPa 0,0 l/m 8,2 km/h NW -19,0 C -15,3 C 19,3 km/h
06.02.2012 04:00 -13,2 C 61 % 1033,6 hPa 0,0 l/m 6,8 km/h NW -19,0 C -13,9 C 16,9 km/h
06.02.2012 05:00 -13,0 C 62 % 1033,6 hPa 0,0 l/m 8,1 km/h NW -18,7 C -15,4 C 18,5 km/h
06.02.2012 06:00 -12,9 C 64 % 1033,4 hPa 0,0 l/m 9,4 km/h NW -18,3 C -16,9 C 19,7 km/h
06.02.2012 07:00 -12,8 C 67 % 1033,5 hPa 0,0 l/m 9,3 km/h W-NW -17,6 C -16,6 C 21,7 km/h
06.02.2012 08:00 -12,5 C 65 % 1033,4 hPa 0,0 l/m 11,5 km/h NW -17,6 C -18,8 C 24,5 km/h
06.02.2012 09:00 -11,1 C 60 % 1033,0 hPa 0,0 l/m 13,5 km/h NW -17,4 C -19,0 C 28,6 km/h
06.02.2012 10:00 -10,1 C 55 % 1032,7 hPa 0,0 l/m 12,7 km/h N-NW -17,4 C -17,2 C 25,8 km/h
06.02.2012 11:00 -9,5 C 53 % 1032,5 hPa 0,0 l/m 12,6 km/h NW -17,3 C -16,5 C 25,7 km/h
06.02.2012 12:00 -9,2 C 51 % 1031,8 hPa 0,0 l/m 15,3 km/h W-NW -17,5 C -18,3 C 29,0 km/h
06.02.2012 13:00 -8,5 C 48 % 1030,9 hPa 0,0 l/m 13,9 km/h NW -17,6 C -16,4 C 28,6 km/h
06.02.2012 14:00 -8,0 C 48 % 1030,3 hPa 0,0 l/m 11,7 km/h NW -17,1 C -13,8 C 26,6 km/h
06.02.2012 15:00 -7,9 C 52 % 1030,0 hPa 0,0 l/m 13,2 km/h N-NO -16,1 C -15,1 C 29,4 km/h
06.02.2012 16:00 -8,1 C 61 % 1030,0 hPa 0,0 l/m 12,6 km/h NW -14,3 C -14,8 C 27,0 km/h
06.02.2012 17:00 -8,7 C 69 % 1030,3 hPa 0,0 l/m 13,5 km/h W-NW -13,3 C -16,3 C 27,4 km/h
06.02.2012 18:00 -9,3 C 74 % 1030,7 hPa 0,0 l/m 11,5 km/h NW -13,0 C -15,1 C 26,2 km/h
06.02.2012 19:00 -9,8 C 79 % 1030,7 hPa 0,0 l/m 13,8 km/h W-NW -12,7 C -17,8 C 27,3 km/h
06.02.2012 20:00 -10,1 C 82 % 1030,7 hPa 0,0 l/m 12,2 km/h NW -12,5 C -16,8 C 29,0 km/h
06.02.2012 21:00 -10,1 C 83 % 1030,6 hPa 0,0 l/m 11,0 km/h W-NW -12,4 C -15,6 C 23,3 km/h
06.02.2012 22:00 -10,2 C 83 % 1030,2 hPa 0,0 l/m 11,7 km/h W -12,5 C -16,4 C 24,9 km/h
06.02.2012 23:00 -10,2 C 83 % 1030,2 hPa 0,0 l/m 10,8 km/h W -12,5 C -15,5 C 23,3 km/h
07.02.2012 00:00 -10,3 C 84 % 1029,8 hPa 0,0 l/m 9,8 km/h NW -12,5 C -14,6 C 22,1 km/h
07.02.2012 01:00 -10,5 C 84 % 1029,6 hPa 0,0 l/m 10,5 km/h NW -12,7 C -15,5 C 23,7 km/h
07.02.2012 02:00 -10,4 C 84 % 1029,3 hPa 0,0 l/m 12,4 km/h N-NW -12,6 C -17,3 C 29,8 km/h
07.02.2012 03:00 -10,8 C 84 % 1029,4 hPa 0,0 l/m 11,5 km/h N-NW -13,0 C -17,0 C 27,8 km/h
07.02.2012 04:00 -10,8 C 83 % 1029,4 hPa 0,0 l/m 13,4 km/h NW -13,1 C -18,7 C 28,6 km/h
07.02.2012 05:00 -11,0 C 83 % 1029,3 hPa 0,0 l/m 13,4 km/h W-NW -13,3 C -18,9 C 30,2 km/h
07.02.2012 06:00 -11,1 C 83 % 1029,4 hPa 0,0 l/m 13,0 km/h NW -13,4 C -18,7 C 27,0 km/h
07.02.2012 07:00 -11,1 C 83 % 1029,3 hPa 0,0 l/m 14,4 km/h W-NW -13,4 C -19,9 C 29,0 km/h
07.02.2012 08:00 -11,1 C 83 % 1029,4 hPa 0,0 l/m 13,8 km/h NW -13,5 C -19,4 C 29,0 km/h
07.02.2012 09:00 -10,9 C 83 % 1029,4 hPa 0,0 l/m 13,9 km/h W -13,3 C -19,4 C 29,8 km/h
07.02.2012 10:00 -10,4 C 83 % 1029,7 hPa 0,0 l/m 14,8 km/h W-NW -12,7 C -19,3 C 30,2 km/h
07.02.2012 11:00 -9,9 C 82 % 1029,8 hPa 0,0 l/m 16,9 km/h W-NW -12,5 C -20,4 C 33,0 km/h
07.02.2012 12:00 -9,6 C 81 % 1029,9 hPa 0,0 l/m 14,8 km/h W -12,3 C -18,4 C 31,0 km/h
07.02.2012 13:00 -9,3 C 81 % 1029,7 hPa 0,0 l/m 15,0 km/h NW -11,9 C -18,3 C 30,6 km/h
07.02.2012 14:00 -9,0 C 79 % 1030,2 hPa 0,0 l/m 13,5 km/h W-NW -12,0 C -16,7 C 30,2 km/h
07.02.2012 15:00 -8,8 C 79 % 1030,6 hPa 0,0 l/m 14,4 km/h NW -11,9 C -17,2 C 27,0 km/h
07.02.2012 16:00 -8,8 C 77 % 1031,3 hPa 0,0 l/m 13,7 km/h W-NW -12,1 C -16,5 C 31,0 km/h
07.02.2012 17:00 -8,9 C 75 % 1032,1 hPa 0,0 l/m 12,6 km/h W-NW -12,6 C -15,8 C 29,0 km/h
07.02.2012 18:00 -8,9 C 74 % 1032,6 hPa 0,0 l/m 10,6 km/h W-NW -12,7 C -13,8 C 23,7 km/h
07.02.2012 19:00 -8,8 C 74 % 1033,2 hPa 0,0 l/m 10,4 km/h NW -12,6 C -13,4 C 22,5 km/h
07.02.2012 20:00 -8,9 C 74 % 1033,7 hPa 0,0 l/m 11,4 km/h W-NW -12,7 C -14,6 C 25,8 km/h
07.02.2012 21:00 -9,2 C 74 % 1034,1 hPa 0,0 l/m 8,6 km/h W-NW -12,9 C -11,9 C 20,5 km/h
07.02.2012 22:00 -9,3 C 75 % 1034,3 hPa 0,0 l/m 8,7 km/h W-NW -13,0 C -12,3 C 18,9 km/h
07.02.2012 23:00 -9,6 C 75 % 1034,7 hPa 0,0 l/m 8,1 km/h NW -13,2 C -11,8 C 20,5 km/h
08.02.2012 00:00 -9,8 C 75 % 1035,0 hPa 0,0 l/m 7,9 km/h W-NW -13,3 C -11,8 C 18,5 km/h
08.02.2012 01:00 -10,0 C 74 % 1035,3 hPa 0,0 l/m 6,7 km/h NW -13,7 C -10,6 C 19,7 km/h
08.02.2012 02:00 -10,2 C 74 % 1035,5 hPa 0,0 l/m 6,0 km/h NW -13,9 C -10,5 C 14,9 km/h
08.02.2012 03:00 -10,4 C 75 % 1035,6 hPa 0,0 l/m 5,1 km/h NW -13,9 C -10,4 C 13,7 km/h
08.02.2012 04:00 -10,5 C 74 % 1035,8 hPa 0,0 l/m 5,8 km/h W-NW -14,1 C -10,6 C 14,5 km/h
08.02.2012 05:00 -10,8 C 75 % 1036,0 hPa 0,0 l/m 5,2 km/h NW -14,3 C -10,8 C 13,7 km/h
08.02.2012 06:00 -11,1 C 76 % 1036,3 hPa 0,0 l/m 2,1 km/h NW -14,5 C -11,1 C 9,3 km/h
08.02.2012 07:00 -11,2 C 76 % 1036,7 hPa 0,0 l/m 3,3 km/h NW -14,6 C -11,2 C 10,9 km/h
08.02.2012 08:00 -10,4 C 75 % 1037,0 hPa 0,0 l/m 5,6 km/h NW -14,0 C -10,5 C 14,1 km/h
08.02.2012 09:00 -9,3 C 72 % 1037,2 hPa 0,0 l/m 6,6 km/h NW -13,5 C -9,9 C 16,1 km/h
08.02.2012 10:00 -7,8 C 66 % 1037,1 hPa 0,0 l/m 6,5 km/h W-NW -13,0 C -8,0 C 15,3 km/h
08.02.2012 11:00 -6,7 C 62 % 1036,6 hPa 0,0 l/m 7,5 km/h W-NW -12,8 C -8,1 C 14,9 km/h
08.02.2012 12:00 -5,6 C 59 % 1036,0 hPa 0,0 l/m 6,7 km/h N-NO -12,4 C -6,1 C 15,3 km/h
08.02.2012 13:00 -5,0 C 57 % 1035,7 hPa 0,0 l/m 4,9 km/h N-NW -12,2 C -5,0 C 12,9 km/h
08.02.2012 14:00 -4,8 C 55 % 1035,4 hPa 0,0 l/m 5,1 km/h N -12,5 C -4,8 C 11,7 km/h
08.02.2012 15:00 -5,0 C 55 % 1035,2 hPa 0,0 l/m 3,8 km/h N -12,6 C -5,0 C 9,3 km/h
08.02.2012 16:00 -5,4 C 56 % 1035,0 hPa 0,0 l/m 3,6 km/h N-NW -12,8 C -5,4 C 8,9 km/h
08.02.2012 17:00 -6,5 C 59 % 1034,9 hPa 0,0 l/m 2,8 km/h W-NW -13,3 C -6,5 C 8,0 km/h
08.02.2012 18:00 -7,9 C 63 % 1034,9 hPa 0,0 l/m 0,1 km/h N -13,7 C -7,9 C 1,6 km/h
08.02.2012 19:00 -9,2 C 67 % 1034,7 hPa 0,0 l/m 0,0 km/h N -14,3 C -9,2 C 0,0 km/h
08.02.2012 20:00 -10,7 C 72 % 1034,9 hPa 0,0 l/m 0,1 km/h N -14,8 C -10,7 C 1,6 km/h
08.02.2012 21:00 -11,4 C 74 % 1034,7 hPa 0,0 l/m 0,0 km/h N -15,1 C -11,4 C 0,0 km/h
08.02.2012 22:00 -12,4 C 77 % 1034,3 hPa 0,0 l/m 0,0 km/h N -15,5 C -12,4 C 0,0 km/h
08.02.2012 23:00 -12,8 C 79 % 1034,0 hPa 0,0 l/m 0,2 km/h N -15,7 C -12,8 C 2,0 km/h
09.02.2012 00:00 -11,3 C 78 % 1033,7 hPa 0,0 l/m 0,6 km/h W-NW -14,4 C -11,3 C 4,4 km/h
09.02.2012 01:00 -10,4 C 74 % 1033,3 hPa 0,0 l/m 0,2 km/h NW -14,2 C -10,4 C 2,8 km/h
09.02.2012 02:00 -9,5 C 75 % 1032,8 hPa 0,0 l/m 4,4 km/h W -13,1 C -9,6 C 13,3 km/h
09.02.2012 03:00 -8,5 C 73 % 1032,2 hPa 0,0 l/m 7,5 km/h NW -12,6 C -9,9 C 17,3 km/h
09.02.2012 04:00 -8,5 C 71 % 1031,5 hPa 0,0 l/m 5,9 km/h NW -12,7 C -8,6 C 13,7 km/h
09.02.2012 05:00 -8,6 C 71 % 1031,3 hPa 0,0 l/m 5,7 km/h NW -12,9 C -9,2 C 14,1 km/h
09.02.2012 06:00 -9,0 C 71 % 1030,8 hPa 0,0 l/m 6,0 km/h NW -13,2 C -9,2 C 14,1 km/h
09.02.2012 07:00 -9,1 C 72 % 1030,3 hPa 0,0 l/m 6,8 km/h N-NW -13,2 C -10,1 C 16,1 km/h
09.02.2012 08:00 -8,8 C 72 % 1030,2 hPa 0,0 l/m 7,6 km/h NW -12,8 C -10,2 C 16,1 km/h
09.02.2012 09:00 -7,1 C 68 % 1029,9 hPa 0,0 l/m 10,0 km/h W-NW -12,0 C -11,2 C 20,9 km/h
09.02.2012 10:00 -6,4 C 65 % 1029,7 hPa 0,0 l/m 11,2 km/h N-NW -11,9 C -11,5 C 26,5 km/h
09.02.2012 11:00 -5,7 C 65 % 1029,0 hPa 0,0 l/m 10,5 km/h NW -11,2 C -10,1 C 21,3 km/h
09.02.2012 12:00 -5,6 C 67 % 1028,3 hPa 0,0 l/m 12,4 km/h W -10,8 C -11,7 C 24,9 km/h
09.02.2012 13:00 -5,7 C 69 % 1027,9 hPa 0,0 l/m 12,4 km/h W-NW -10,4 C -11,9 C 23,7 km/h
09.02.2012 14:00 -5,8 C 74 % 1027,5 hPa 0,0 l/m 7,9 km/h NW -9,6 C -7,6 C 18,1 km/h
09.02.2012 15:00 -6,1 C 79 % 1027,3 hPa 0,0 l/m 5,4 km/h N -9,1 C -6,1 C 12,9 km/h
09.02.2012 16:00 -6,6 C 82 % 1027,4 hPa 0,0 l/m 3,5 km/h N-NO -9,1 C -6,6 C 10,1 km/h
09.02.2012 17:00 -7,0 C 84 % 1027,6 hPa 0,0 l/m 4,8 km/h N -9,3 C -7,0 C 10,9 km/h
09.02.2012 18:00 -7,1 C 84 % 1028,5 hPa 0,0 l/m 3,6 km/h N-NW -9,3 C -7,1 C 9,3 km/h
09.02.2012 19:00 -7,3 C 84 % 1029,1 hPa 0,0 l/m 3,3 km/h N-NW -9,5 C -7,3 C 9,3 km/h
09.02.2012 20:00 -7,3 C 85 % 1029,6 hPa 0,0 l/m 3,3 km/h NW -9,4 C -7,3 C 8,9 km/h
09.02.2012 21:00 -7,4 C 84 % 1030,2 hPa 0,0 l/m 3,2 km/h NW -9,6 C -7,4 C 8,4 km/h
09.02.2012 22:00 -7,4 C 84 % 1030,7 hPa 0,0 l/m 5,9 km/h N-NW -9,7 C -7,4 C 14,1 km/h
09.02.2012 23:00 -7,8 C 82 % 1031,5 hPa 0,0 l/m 6,5 km/h N-NO -10,4 C -8,4 C 15,7 km/h
10.02.2012 00:00 -8,3 C 77 % 1032,3 hPa 0,0 l/m 6,4 km/h N-NW -11,5 C -8,8 C 16,5 km/h
10.02.2012 01:00 -8,6 C 76 % 1032,7 hPa 0,0 l/m 6,8 km/h NW -12,1 C -9,2 C 16,1 km/h
10.02.2012 02:00 -9,2 C 76 % 1033,4 hPa 0,0 l/m 6,9 km/h N-NW -12,6 C -9,9 C 16,5 km/h
10.02.2012 03:00 -9,8 C 79 % 1033,8 hPa 0,0 l/m 6,3 km/h NW -12,8 C -9,8 C 15,3 km/h
10.02.2012 04:00 -10,3 C 80 % 1034,1 hPa 0,0 l/m 5,9 km/h NW -13,0 C -10,3 C 14,1 km/h
10.02.2012 05:00 -10,8 C 79 % 1034,6 hPa 0,0 l/m 5,3 km/h W-NW -13,7 C -10,8 C 13,3 km/h
10.02.2012 06:00 -11,0 C 78 % 1034,9 hPa 0,0 l/m 6,0 km/h W-NW -14,1 C -11,2 C 17,3 km/h
10.02.2012 07:00 -11,3 C 76 % 1035,7 hPa 0,0 l/m 5,5 km/h NW -14,6 C -11,7 C 15,7 km/h
10.02.2012 08:00 -11,2 C 76 % 1036,0 hPa 0,0 l/m 5,4 km/h W-NW -14,6 C -11,5 C 13,7 km/h
10.02.2012 09:00 -10,4 C 72 % 1036,3 hPa 0,0 l/m 8,3 km/h NW -14,5 C -12,9 C 19,7 km/h
10.02.2012 10:00 -9,6 C 68 % 1036,6 hPa 0,0 l/m 11,6 km/h W-NW -14,5 C -15,5 C 22,1 km/h
10.02.2012 11:00 -8,4 C 63 % 1036,4 hPa 0,0 l/m 11,1 km/h NW -14,3 C -13,8 C 20,1 km/h
10.02.2012 12:00 -7,8 C 60 % 1036,2 hPa 0,0 l/m 11,6 km/h W-NW -14,2 C -13,6 C 24,5 km/h
10.02.2012 13:00 -7,6 C 60 % 1036,0 hPa 0,0 l/m 9,2 km/h NW -13,9 C -10,9 C 18,9 km/h
10.02.2012 14:00 -7,7 C 60 % 1035,9 hPa 0,0 l/m 9,6 km/h NW -14,0 C -11,5 C 20,9 km/h
10.02.2012 15:00 -7,8 C 62 % 1035,7 hPa 0,0 l/m 7,4 km/h NW -13,9 C -9,1 C 16,9 km/h
10.02.2012 16:00 -8,3 C 64 % 1035,6 hPa 0,0 l/m 6,3 km/h W-NW -13,9 C -8,7 C 15,7 km/h
10.02.2012 17:00 -9,0 C 66 % 1035,6 hPa 0,0 l/m 3,2 km/h W-NW -14,1 C -9,0 C 10,1 km/h
10.02.2012 18:00 -9,7 C 68 % 1035,6 hPa 0,0 l/m 1,8 km/h NW -14,4 C -9,7 C 7,2 km/h
10.02.2012 19:00 -10,2 C 71 % 1035,7 hPa 0,0 l/m 2,3 km/h NW -14,5 C -10,2 C 10,5 km/h
10.02.2012 20:00 -9,7 C 71 % 1035,8 hPa 0,0 l/m 5,2 km/h N -14,0 C -9,7 C 12,1 km/h
10.02.2012 21:00 -9,8 C 70 % 1035,8 hPa 0,0 l/m 6,7 km/h N -14,3 C -10,8 C 16,5 km/h
10.02.2012 22:00 -10,0 C 70 % 1035,7 hPa 0,0 l/m 5,1 km/h N -14,4 C -10,0 C 11,7 km/h
10.02.2012 23:00 -11,0 C 72 % 1035,4 hPa 0,0 l/m 4,4 km/h NW -15,1 C -11,0 C 10,5 km/h
11.02.2012 00:00 -11,8 C 73 % 1035,2 hPa 0,0 l/m 3,1 km/h W-NW -15,6 C -11,8 C 10,1 km/h
11.02.2012 01:00 -12,2 C 75 % 1034,4 hPa 0,0 l/m 4,8 km/h W-NW -15,8 C -12,2 C 12,5 km/h
11.02.2012 02:00 -12,4 C 75 % 1033,9 hPa 0,0 l/m 5,7 km/h W-NW -15,9 C -12,6 C 14,1 km/h
11.02.2012 03:00 -12,8 C 76 % 1033,8 hPa 0,0 l/m 5,4 km/h W -16,2 C -12,9 C 12,9 km/h
11.02.2012 04:00 -12,9 C 76 % 1033,5 hPa 0,0 l/m 6,8 km/h W-NW -16,2 C -13,6 C 16,9 km/h
11.02.2012 05:00 -13,1 C 76 % 1033,5 hPa 0,0 l/m 5,1 km/h W-NW -16,5 C -13,1 C 13,3 km/h
11.02.2012 06:00 -13,3 C 76 % 1033,0 hPa 0,0 l/m 6,8 km/h W-NW -16,6 C -14,6 C 16,9 km/h
11.02.2012 07:00 -13,4 C 75 % 1033,3 hPa 0,0 l/m 6,3 km/h W-NW -16,8 C -13,8 C 16,9 km/h
11.02.2012 08:00 -13,4 C 75 % 1033,1 hPa 0,0 l/m 5,8 km/h W -16,9 C -13,4 C 14,9 km/h
11.02.2012 09:00 -12,4 C 71 % 1032,9 hPa 0,0 l/m 6,9 km/h W-NW -16,5 C -13,1 C 16,5 km/h
11.02.2012 10:00 -11,3 C 68 % 1032,4 hPa 0,0 l/m 8,8 km/h W-NW -16,1 C -14,5 C 18,1 km/h
11.02.2012 11:00 -10,1 C 63 % 1032,1 hPa 0,0 l/m 6,0 km/h N -15,8 C -10,9 C 14,5 km/h
11.02.2012 12:00 -8,7 C 58 % 1031,7 hPa 0,0 l/m 6,3 km/h N -15,6 C -9,1 C 16,5 km/h
11.02.2012 13:00 -8,1 C 56 % 1031,4 hPa 0,0 l/m 7,0 km/h NW -15,3 C -9,2 C 16,5 km/h
11.02.2012 14:00 -7,8 C 57 % 1030,8 hPa 0,0 l/m 8,0 km/h W-NW -14,9 C -9,7 C 17,3 km/h
11.02.2012 15:00 -7,8 C 57 % 1030,8 hPa 0,0 l/m 6,5 km/h W-NW -14,8 C -8,4 C 14,9 km/h
11.02.2012 16:00 -8,1 C 59 % 1030,8 hPa 0,0 l/m 5,6 km/h W-NW -14,6 C -8,1 C 13,3 km/h
11.02.2012 17:00 -8,1 C 60 % 1030,8 hPa 0,0 l/m 3,7 km/h W-NW -14,5 C -8,1 C 9,6 km/h
11.02.2012 18:00 -8,0 C 60 % 1030,9 hPa 0,0 l/m 3,8 km/h W-NW -14,4 C -8,0 C 8,9 km/h
11.02.2012 19:00 -8,0 C 62 % 1031,1 hPa 0,0 l/m 4,5 km/h W -14,0 C -8,0 C 10,9 km/h
11.02.2012 20:00 -8,6 C 62 % 1031,3 hPa 0,0 l/m 3,1 km/h W-NW -14,5 C -8,6 C 10,1 km/h
11.02.2012 21:00 -9,2 C 62 % 1031,7 hPa 0,0 l/m 3,9 km/h W-NW -15,1 C -9,2 C 10,5 km/h
11.02.2012 22:00 -9,5 C 63 % 1032,0 hPa 0,0 l/m 5,2 km/h NW -15,2 C -9,5 C 11,7 km/h
11.02.2012 23:00 -10,1 C 64 % 1032,1 hPa 0,0 l/m 5,5 km/h W-NW -15,5 C -10,1 C 14,9 km/h
12.02.2012 00:00 -10,6 C 65 % 1031,9 hPa 0,0 l/m 5,2 km/h W-NW -15,8 C -10,9 C 13,7 km/h
12.02.2012 01:00 -11,1 C 66 % 1031,8 hPa 0,0 l/m 4,8 km/h NW -16,1 C -11,1 C 10,5 km/h
12.02.2012 02:00 -11,4 C 66 % 1031,5 hPa 0,0 l/m 4,4 km/h W -16,4 C -11,4 C 12,5 km/h
12.02.2012 03:00 -11,8 C 67 % 1031,1 hPa 0,0 l/m 4,5 km/h NW -16,6 C -11,8 C 12,5 km/h
12.02.2012 04:00 -12,2 C 71 % 1031,5 hPa 0,0 l/m 2,5 km/h NW -16,4 C -12,2 C 8,9 km/h
12.02.2012 05:00 -12,3 C 69 % 1031,4 hPa 0,0 l/m 3,1 km/h W-NW -16,8 C -12,3 C 10,9 km/h
12.02.2012 06:00 -12,6 C 70 % 1031,5 hPa 0,0 l/m 5,1 km/h W-NW -17,0 C -12,6 C 12,9 km/h
12.02.2012 07:00 -13,2 C 71 % 1031,8 hPa 0,0 l/m 2,8 km/h W-NW -17,3 C -13,2 C 9,3 km/h
12.02.2012 08:00 -12,5 C 70 % 1031,7 hPa 0,0 l/m 5,8 km/h W -16,8 C -13,1 C 14,1 km/h
12.02.2012 09:00 -10,9 C 65 % 1031,6 hPa 0,0 l/m 7,9 km/h NW -16,2 C -12,9 C 18,1 km/h
12.02.2012 10:00 -9,1 C 60 % 1031,4 hPa 0,0 l/m 8,6 km/h W -15,5 C -11,9 C 18,5 km/h
12.02.2012 11:00 -7,7 C 55 % 1030,9 hPa 0,0 l/m 7,0 km/h N-NW -15,2 C -8,7 C 18,1 km/h
12.02.2012 12:00 -6,7 C 51 % 1030,1 hPa 0,0 l/m 8,8 km/h NW -15,1 C -9,6 C 19,3 km/h
12.02.2012 13:00 -5,9 C 49 % 1029,1 hPa 0,0 l/m 10,3 km/h W-NW -14,9 C -10,2 C 22,5 km/h
12.02.2012 14:00 -5,6 C 47 % 1028,7 hPa 0,0 l/m 8,8 km/h W -15,1 C -8,5 C 20,9 km/h
12.02.2012 15:00 -5,8 C 47 % 1028,3 hPa 0,0 l/m 9,0 km/h W-NW -15,4 C -8,9 C 18,9 km/h
12.02.2012 16:00 -6,1 C 47 % 1028,1 hPa 0,0 l/m 7,3 km/h N-NW -15,5 C -7,5 C 18,1 km/h
12.02.2012 17:00 -7,1 C 51 % 1028,3 hPa 0,0 l/m 2,4 km/h NW -15,4 C -7,1 C 8,4 km/h
12.02.2012 18:00 -7,5 C 55 % 1028,1 hPa 0,0 l/m 3,5 km/h W-NW -15,0 C -7,5 C 12,5 km/h
12.02.2012 19:00 -6,9 C 55 % 1027,8 hPa 0,0 l/m 5,5 km/h W-NW -14,3 C -6,8 C 14,1 km/h
12.02.2012 20:00 -6,7 C 55 % 1027,5 hPa 0,0 l/m 7,3 km/h W -14,3 C -7,8 C 18,9 km/h
12.02.2012 21:00 -6,7 C 53 % 1027,2 hPa 0,0 l/m 5,3 km/h NW -14,7 C -6,8 C 14,1 km/h
12.02.2012 22:00 -7,2 C 56 % 1026,9 hPa 0,0 l/m 6,2 km/h NW -14,4 C -8,1 C 16,5 km/h
12.02.2012 23:00 -7,3 C 59 % 1026,8 hPa 0,0 l/m 5,1 km/h NW -13,9 C -7,9 C 14,1 km/h
Min-Datum _ 11.02.12 12.02.12 12.02.12 - 08.02.12 - 06.02.12 06.02.12 08.02.12
_ Min-Zeit 08:15 14:45 23:15 - 18:30 - 03:45 09:30 18:30
Minimum _ -13,7 C 46 % 1026,7 hPa - 0,0 km/h - -19,2 C -21,7 C 0,0 km/h
Max-Datum _ 08.02.12 09.02.12 08.02.12 06.02.12 07.02.12 - 09.02.12 08.02.12 07.02.12
_ Max-Zeit 14:15 20:00 10:15 00:00 11:30 - 16:00 13:45 02:45
Maximum _ -4,7 C 85 % 1037,3 hPa 0,0 l/m 17,4 km/h
W-NW
- -9,0 C -4,8 C 35,4 km/h
NW
Durchschnitt _ -9,4 C 69 % 1032,3 hPa #0,0 l/m 7,4 km/h NW -14,2 C -11,8 C 17,2 km/h